Flight Track Log - Related Links

Times and Time Zones

All times are in EDT time to prevent confusion due to time zone crossing. See the EJA982 flight status page for this flight to view local times or setup timezone preferences in your user account.

Time Position Orientation Groundspeed Altitude Reporting Facility
EDT Latitude Longitude Course Direction KTS MPH feet Rate Location/Type
Sun 05:55:00 PM 36.8022 -81.0922 238° Southwest  Level Estimated
Sun 05:56:00 PM 36.7359 -81.2178 237° Southwest  Level Estimated
Sun 05:57:00 PM 36.6695 -81.3433 237° Southwest  Level Estimated
Sun 05:58:00 PM 36.6029 -81.4685 237° Southwest  Level Estimated
Sun 05:59:00 PM 36.5363 -81.5935 236° Southwest  Level Estimated
Sun 06:00:00 PM 36.4743 -81.7091 236° Southwest  Level Estimated
Sun 06:01:00 PM 36.4123 -81.8246 236° Southwest  Level Estimated
Sun 06:02:00 PM 36.3501 -81.9399 236° Southwest  Level Estimated
Sun 06:03:00 PM 36.2882 -82.0543 236° Southwest  Level Estimated
Sun 06:04:00 PM 36.2263 -82.1685 236° Southwest  Level Estimated
Sun 06:05:00 PM 36.1652 -82.2806 236° Southwest  Level Estimated
Sun 06:06:00 PM 36.1040 -82.3926 236° Southwest  Level Estimated
Sun 06:07:00 PM 36.0428 -82.5044 236° Southwest  Level Estimated
Sun 06:08:00 PM 35.9814 -82.6160 236° Southwest  Level Estimated
Sun 06:09:00 PM 35.9204 -82.7266 236° Southwest  Level Estimated
Sun 06:10:00 PM 35.8592 -82.8372 236° Southwest  Level Estimated
Sun 06:11:00 PM 35.7979 -82.9475 236° Southwest  Level Estimated
Sun 06:12:00 PM 35.7366 -83.0577 236° Southwest  Level Estimated
Sun 06:13:00 PM 35.6751 -83.1677 236° Southwest  Level Estimated
Sun 06:14:00 PM 35.6136 -83.2775 235° Southwest  Level Estimated
Sun 06:15:00 PM 35.5539 -83.3837 235° Southwest  Level Estimated
Sun 06:16:00 PM 35.4941 -83.4897 235° Southwest  Level Estimated
Sun 06:17:00 PM 35.4342 -83.5956 235° Southwest  Level Estimated
Sun 06:18:00 PM 35.3743 -83.7012 235° Southwest  Level Estimated
Sun 06:19:00 PM 35.3142 -83.8068 235° Southwest  Level Estimated
Sun 06:20:00 PM 35.2541 -83.9121 235° Southwest  Level Estimated
Sun 06:21:00 PM 35.1938 -84.0174 235° Southwest  Level Estimated
Sun 06:22:00 PM 35.1335 -84.1224 235° Southwest  Level Estimated
Sun 06:23:00 PM 35.0731 -84.2273 235° Southwest  Level Estimated
Sun 06:24:00 PM 35.0126 -84.3321 235° Southwest  Level Estimated
Sun 06:25:00 PM 34.9520 -84.4367 235° Southwest  Level Estimated
Sun 06:26:00 PM 34.8913 -84.5411 235° Southwest  Level Estimated
Sun 06:27:00 PM 34.8305 -84.6454 235° Southwest  Level Estimated
Sun 06:28:00 PM 34.7696 -84.7495 235° Southwest  Level Estimated
Sun 06:29:00 PM 34.7087 -84.8535 235° Southwest  Level Estimated
Sun 06:30:00 PM 34.6476 -84.9573 234° Southwest  Level Estimated
Sun 06:31:00 PM 34.5865 -85.0610 234° Southwest  Level Estimated
Sun 06:32:00 PM 34.5253 -85.1645 234° Southwest  Level Estimated
Sun 06:33:00 PM 34.4640 -85.2679 234° Southwest  Level Estimated
Sun 06:34:00 PM 34.4026 -85.3711 234° Southwest  Level Estimated
Sun 06:35:00 PM 34.3411 -85.4741 234° Southwest  Level Estimated
Sun 06:36:00 PM 34.2795 -85.5770 234° Southwest  Level Estimated
Sun 06:37:00 PM 34.2179 -85.6798 234° Southwest  Level Estimated
Sun 06:38:00 PM 34.1561 -85.7824 234° Southwest  Level Estimated
Sun 06:39:00 PM 34.0943 -85.8849 234° Southwest  Level Estimated
Sun 06:40:00 PM 34.0324 -85.9872 234° Southwest  Level Estimated
Sun 06:41:00 PM 33.9704 -86.0893 234° Southwest  Level Estimated
Sun 06:42:00 PM 33.9084 -86.1914 234° Southwest  Level Estimated
Sun 06:43:00 PM 33.8462 -86.2932 234° Southwest  Level Estimated
Sun 06:44:00 PM 33.7840 -86.3950 234° Southwest  Level Estimated
Sun 06:45:00 PM 33.7216 -86.4965 234° Southwest  Level Estimated
Sun 06:46:00 PM 33.6592 -86.5979 234° Southwest  Level Estimated
Sun 06:47:00 PM 33.5967 -86.6992 233° Southwest  Level Estimated
Sun 06:48:00 PM 33.5639 -86.7523 233° Southwest  Level Estimated
Sun 06:49:00 PM 33.5639 -86.7523 107° East  Level Estimated
Sun 06:50:00 PM 33.5639 -86.7523 107° East  Level Estimated
Sun 06:51:00 PM 33.5639 -86.7523 107° East  Level Estimated
Sun 06:52:00 PM 33.5639 -86.7523 107° East  Level Estimated
Sun 06:53:00 PM 33.5639 -86.7523 107° East  Level Estimated
Sun 06:54:00 PM 33.5639 -86.7523 107° East  Level Estimated
Sun 06:55:00 PM 33.5639 -86.7523 107° East  Level Estimated
Sun 06:56:00 PM 33.5639 -86.7523 107° East  Level Estimated
Sun 06:57:00 PM 33.5639 -86.7523 107° East  Level Estimated
Sun 06:58:00 PM 33.5639 -86.7523 107° East  Level Estimated
Sun 06:59:00 PM 33.5639 -86.7523 107° East  Level Estimated
Sun 07:00:00 PM 33.5639 -86.7523 107° East  Level Estimated
Sun 07:01:00 PM 33.5639 -86.7523 107° East  Level Estimated
Sun 07:02:00 PM 33.5639 -86.7523 107° East  Level Estimated
Sun 07:03:00 PM 33.5639 -86.7523 107° East  Level Estimated
Sun 07:04:00 PM 33.5639 -86.7523 107° East  Level Estimated
Sun 07:05:00 PM 33.5639 -86.7523 107° East  Level Estimated
Sun 07:06:00 PM 33.5639 -86.7523 107° East  Level Estimated
Sun 07:07:00 PM 33.5639 -86.7523 107° East  Level Estimated
Sun 07:08:00 PM 33.5639 -86.7523 107° East  Level Estimated
Sun 07:09:00 PM 33.5639 -86.7523 107° East  Level Estimated
Sun 07:10:00 PM 33.5639 -86.7523 107° East  Level Estimated
Sun 07:11:00 PM 33.5639 -86.7523 107° East  Level Estimated
Sun 07:12:00 PM 33.5639 -86.7523 107° East  Level Estimated
Sun 07:13:00 PM 33.5639 -86.7523 107° East  Level Estimated
Sun 07:14:00 PM 33.5639 -86.7523 107° East  Level Estimated
Sun 07:15:00 PM 33.5639 -86.7523 107° East  Level Estimated
Sun 07:16:00 PM 33.5639 -86.7523 107° East  Level Estimated
Sun 07:17:00 PM 33.5639 -86.7523 107° East  Level Estimated
Sun 07:18:00 PM 33.5639 -86.7523 107° East  Level Estimated
Sun 07:19:00 PM 33.5639 -86.7523 107° East  Level Estimated
Sun 07:20:00 PM 33.5639 -86.7523 107° East  Level Estimated
Sun 07:21:00 PM 33.5639 -86.7523 107° East  Level Estimated
Sun 07:22:00 PM 33.5639 -86.7523 107° East  Level Estimated
Sun 07:23:00 PM 33.5639 -86.7523 107° East  Level Estimated
Sun 07:24:00 PM 33.5639 -86.7523 107° East  Level Estimated
Sun 07:25:00 PM 33.5639 -86.7523 107° East  Level Estimated
Sun 07:26:00 PM 33.5639 -86.7523 107° East  Level Estimated
Sun 07:27:00 PM 33.5639 -86.7523 107° East  Level Estimated
Sun 07:28:00 PM 33.5639 -86.7523 107° East  Level Estimated
Sun 07:29:00 PM 33.5639 -86.7523 107° East  Level Estimated
Sun 07:30:00 PM 33.5639 -86.7523 107° East  Level Estimated
Sun 07:31:00 PM 33.5639 -86.7523 107° East  Level Estimated
Sun 07:32:00 PM 33.5639 -86.7523 107° East  Level Estimated
Sun 07:33:00 PM 33.5639 -86.7523 107° East  Level Estimated
Sun 07:34:00 PM 33.5639 -86.7523 107° East  Level Estimated
Sun 07:35:00 PM 33.5639 -86.7523 107° East  Level Estimated
Sun 07:36:00 PM 33.5639 -86.7523 107° East  Level Estimated
Sun 07:37:00 PM 33.5639 -86.7523 107° East  Level Estimated
Sun 07:38:00 PM 33.5639 -86.7523 107° East  Level Estimated
Sun 07:39:00 PM 33.5639 -86.7523 107° East  Level Estimated
Sun 07:40:00 PM 33.5639 -86.7523 107° East  Level Estimated
Sun 07:41:00 PM 33.5639 -86.7523 107° East  Level Estimated
Sun 07:42:00 PM 33.5639 -86.7523 107° East  Level Estimated
Sun 07:43:00 PM 33.5639 -86.7523 107° East  Level Estimated
Sun 07:44:00 PM 33.5639 -86.7523 107° East  Level Estimated
Sun 07:45:00 PM 33.5639 -86.7523 107° East  Level Estimated
Sun 07:46:00 PM 33.5639 -86.7523 107° East  Level Estimated
Sun 07:47:00 PM 33.5639 -86.7523 107° East  Level Estimated
Sun 07:48:00 PM 33.5639 -86.7523 107° East  Level Estimated
Sun 07:49:00 PM 33.5639 -86.7523 107° East  Level Estimated
Sun 07:50:00 PM 33.5639 -86.7523 107° East  Level Estimated
Sun 07:51:00 PM 33.5639 -86.7523 107° East  Level Estimated
Sun 07:52:00 PM 33.5639 -86.7523 107° East  Level Estimated
Sun 07:53:00 PM 33.5639 -86.7523 107° East  Level Estimated
Sun 07:54:00 PM 33.5639 -86.7523 107° East  Level Estimated
Sun 07:55:00 PM 33.5639 -86.7523 107° East  Level Estimated
Sun 07:56:00 PM 33.5639 -86.7523 107° East  Level Estimated
Sun 07:57:00 PM 33.5639 -86.7523 107° East  Level Estimated
Sun 07:58:00 PM 33.5639 -86.7523 107° East  Level Estimated
Sun 07:59:00 PM 33.5639 -86.7523 107° East  Level Estimated
Sun 08:00:00 PM 33.5639 -86.7523 107° East  Level Estimated
Sun 08:01:00 PM 33.5639 -86.7523 107° East  Level Estimated
Sun 08:02:00 PM 33.5639 -86.7523 107° East  Level Estimated
Sun 08:03:00 PM 33.5639 -86.7523 107° East  Level Estimated
Sun 08:04:00 PM 33.5639 -86.7523 107° East  Level Estimated
Sun 08:05:00 PM 33.5639 -86.7523 107° East  Level Estimated
Sun 08:06:00 PM 33.5639 -86.7523 107° East  Level Estimated
Sun 08:07:00 PM 33.5639 -86.7523 107° East  Level Estimated
Sun 08:08:00 PM 33.5639 -86.7523 107° East  Level Estimated
Sun 08:09:00 PM 33.5639 -86.7523 107° East  Level Estimated
Sun 08:10:00 PM 33.5639 -86.7523 107° East  Level Estimated
Sun 08:11:00 PM 33.5639 -86.7523 107° East  Level Estimated
Sun 08:12:00 PM 33.5639 -86.7523 107° East  Level Estimated
Sun 08:13:00 PM 33.5639 -86.7523 107° East  Level Estimated
Sun 08:14:00 PM 33.5639 -86.7523 107° East  Level Estimated
Sun 08:15:00 PM 33.5639 -86.7523 107° East  Level Estimated
Sun 08:16:00 PM 33.5639 -86.7523 107° East  Level Estimated
Sun 08:17:00 PM 33.5639 -86.7523 107° East  Level Estimated
Sun 08:18:00 PM 33.5639 -86.7523 107° East  Level Estimated
Sun 08:19:00 PM 33.5639 -86.7523 107° East  Level Estimated
Sun 08:20:00 PM 33.5639 -86.7523 107° East  Level Estimated
Sun 08:21:00 PM 33.5639 -86.7523 107° East  Level Estimated
Sun 08:22:00 PM 33.5639 -86.7523 107° East  Level Estimated
Sun 08:23:00 PM 33.5639 -86.7523 107° East  Level Estimated
Sun 08:24:00 PM 33.5639 -86.7523 107° East  Level Estimated
Sun 08:25:00 PM 33.5639 -86.7523 107° East  Level Estimated
Sun 08:26:00 PM 33.5639 -86.7523 107° East  Level Estimated
Sun 08:27:00 PM 33.5639 -86.7523 107° East  Level Estimated

Login

Don't have an account? Register now (free) for customized features, flight alerts, and more!